sensor_id;sensor_type;location;lat;lon;timestamp;pressure;altitude;pressure_sealevel;temperature;humidity
75065;BME280;63646;49.110;9.140;2022-11-23T00:01:37;98041.13;;;21.11;55.76
75065;BME280;63646;49.110;9.140;2022-11-23T00:04:05;98047.44;;;21.10;56.35
75065;BME280;63646;49.110;9.140;2022-11-23T00:06:30;98046.59;;;21.10;55.91
75065;BME280;63646;49.110;9.140;2022-11-23T00:08:56;98036.97;;;21.09;56.02
75065;BME280;63646;49.110;9.140;2022-11-23T00:11:24;98040.44;;;21.09;55.79
75065;BME280;63646;49.110;9.140;2022-11-23T00:13:50;98031.03;;;21.07;55.94
75065;BME280;63646;49.110;9.140;2022-11-23T00:16:18;98035.31;;;21.08;55.79
75065;BME280;63646;49.110;9.140;2022-11-23T00:18:44;98036.97;;;21.09;55.91
75065;BME280;63646;49.110;9.140;2022-11-23T00:21:19;98029.34;;;21.06;55.78
75065;BME280;63646;49.110;9.140;2022-11-23T00:23:45;98036.34;;;21.07;55.84
75065;BME280;63646;49.110;9.140;2022-11-23T00:26:11;98031.84;;;21.07;55.59
75065;BME280;63646;49.110;9.140;2022-11-23T00:28:37;98035.31;;;21.08;56.00
75065;BME280;63646;49.110;9.140;2022-11-23T00:31:08;98037.97;;;21.08;56.21
75065;BME280;63646;49.110;9.140;2022-11-23T00:33:34;98037.31;;;21.06;55.81
75065;BME280;63646;49.110;9.140;2022-11-23T00:36:00;98039.00;;;21.07;55.90
75065;BME280;63646;49.110;9.140;2022-11-23T00:38:27;98043.47;;;21.06;55.93
75065;BME280;63646;49.110;9.140;2022-11-23T00:41:00;98043.47;;;21.06;55.60
75065;BME280;63646;49.110;9.140;2022-11-23T00:43:27;98040.81;;;21.06;55.51
75065;BME280;63646;49.110;9.140;2022-11-23T00:46:03;98042.63;;;21.06;55.94
75065;BME280;63646;49.110;9.140;2022-11-23T00:48:29;98049.13;;;21.03;55.45
75065;BME280;63646;49.110;9.140;2022-11-23T00:50:54;98047.31;;;21.04;56.02
75065;BME280;63646;49.110;9.140;2022-11-23T00:53:19;98042.00;;;21.04;55.80
75065;BME280;63646;49.110;9.140;2022-11-23T00:55:52;98050.59;;;21.06;55.68
75065;BME280;63646;49.110;9.140;2022-11-23T00:58:17;98045.66;;;21.03;55.89
75065;BME280;63646;49.110;9.140;2022-11-23T01:00:43;98044.66;;;21.04;55.70
75065;BME280;63646;49.110;9.140;2022-11-23T01:03:08;98044.66;;;21.04;56.09
75065;BME280;63646;49.110;9.140;2022-11-23T01:05:37;98042.00;;;21.04;55.78
75065;BME280;63646;49.110;9.140;2022-11-23T01:08:04;98043.00;;;21.03;55.76
75065;BME280;63646;49.110;9.140;2022-11-23T01:10:30;98044.66;;;21.04;55.79
75065;BME280;63646;49.110;9.140;2022-11-23T01:12:55;98048.31;;;21.03;55.46
75065;BME280;63646;49.110;9.140;2022-11-23T01:15:20;98052.78;;;21.02;55.83
75065;BME280;63646;49.110;9.140;2022-11-23T01:17:46;98043.97;;;21.02;55.92
75065;BME280;63646;49.110;9.140;2022-11-23T01:20:11;98047.66;;;21.01;55.64
75065;BME280;63646;49.110;9.140;2022-11-23T01:22:36;98040.69;;;20.99;55.90
75065;BME280;63646;49.110;9.140;2022-11-23T01:25:02;98035.53;;;20.98;55.94
75065;BME280;63646;49.110;9.140;2022-11-23T01:27:28;98045.19;;;20.99;55.70
75065;BME280;63646;49.110;9.140;2022-11-23T01:29:53;98039.00;;;20.98;55.93
75065;BME280;63646;49.110;9.140;2022-11-23T01:32:18;98035.53;;;20.98;56.07
75065;BME280;63646;49.110;9.140;2022-11-23T01:34:43;98050.66;;;20.97;55.79
75065;BME280;63646;49.110;9.140;2022-11-23T01:37:09;98048.81;;;20.98;56.02
75065;BME280;63646;49.110;9.140;2022-11-23T01:39:34;98042.69;;;20.97;55.60
75065;BME280;63646;49.110;9.140;2022-11-23T01:42:00;98045.34;;;20.97;55.57
75065;BME280;63646;49.110;9.140;2022-11-23T01:44:31;98041.84;;;20.97;55.98
75065;BME280;63646;49.110;9.140;2022-11-23T01:47:01;98051.47;;;20.98;55.70
75065;BME280;63646;49.110;9.140;2022-11-23T01:49:31;98050.50;;;20.99;55.51
75065;BME280;63646;49.110;9.140;2022-11-23T01:52:03;98050.66;;;20.97;55.82
75065;BME280;63646;49.110;9.140;2022-11-23T01:54:35;98053.31;;;20.97;55.77
75065;BME280;63646;49.110;9.140;2022-11-23T01:57:08;98057.78;;;20.97;55.63
75065;BME280;63646;49.110;9.140;2022-11-23T01:59:35;98058.63;;;20.97;55.54
75065;BME280;63646;49.110;9.140;2022-11-23T02:02:01;98074.38;;;20.99;55.59
75065;BME280;63646;49.110;9.140;2022-11-23T02:04:31;98079.84;;;20.97;55.67
75065;BME280;63646;49.110;9.140;2022-11-23T02:07:00;98078.22;;;20.96;56.21
75065;BME280;63646;49.110;9.140;2022-11-23T02:09:28;98066.78;;;20.96;55.98
75065;BME280;63646;49.110;9.140;2022-11-23T02:11:55;98079.84;;;20.97;56.15
75065;BME280;63646;49.110;9.140;2022-11-23T02:14:20;98079.22;;;20.95;55.70
75065;BME280;63646;49.110;9.140;2022-11-23T02:16:46;98073.06;;;20.95;55.87
75065;BME280;63646;49.110;9.140;2022-11-23T02:19:44;98077.72;;;20.93;55.66
75065;BME280;63646;49.110;9.140;2022-11-23T02:22:11;98078.56;;;20.93;55.83
75065;BME280;63646;49.110;9.140;2022-11-23T02:24:41;98075.06;;;20.93;56.22
75065;BME280;63646;49.110;9.140;2022-11-23T02:27:12;98080.19;;;20.94;55.92
75065;BME280;63646;49.110;9.140;2022-11-23T02:29:37;98083.03;;;20.93;55.77
75065;BME280;63646;49.110;9.140;2022-11-23T02:32:03;98081.22;;;20.93;55.50
75065;BME280;63646;49.110;9.140;2022-11-23T02:34:28;98081.41;;;20.92;56.01
75065;BME280;63646;49.110;9.140;2022-11-23T02:36:55;98079.72;;;20.91;56.14
75065;BME280;63646;49.110;9.140;2022-11-23T02:39:31;98076.91;;;20.92;55.88
75065;BME280;63646;49.110;9.140;2022-11-23T02:41:58;98087.06;;;20.89;55.59
75065;BME280;63646;49.110;9.140;2022-11-23T02:45:02;98084.22;;;20.90;55.57
75065;BME280;63646;49.110;9.140;2022-11-23T02:47:30;98081.75;;;20.89;55.80
75065;BME280;63646;49.110;9.140;2022-11-23T02:49:56;98078.91;;;20.90;55.91
75065;BME280;63646;49.110;9.140;2022-11-23T02:52:21;98076.44;;;20.89;55.75
75065;BME280;63646;49.110;9.140;2022-11-23T02:54:47;98078.91;;;20.90;55.54
75065;BME280;63646;49.110;9.140;2022-11-23T02:57:12;98075.59;;;20.88;56.24
75065;BME280;63646;49.110;9.140;2022-11-23T02:59:38;98082.56;;;20.89;56.21
75065;BME280;63646;49.110;9.140;2022-11-23T03:02:04;98077.44;;;20.88;55.68
75065;BME280;63646;49.110;9.140;2022-11-23T03:04:30;98076.44;;;20.89;55.75
75065;BME280;63646;49.110;9.140;2022-11-23T03:06:55;98076.59;;;20.87;56.21
75065;BME280;63646;49.110;9.140;2022-11-23T03:09:21;98085.22;;;20.89;55.98
75065;BME280;63646;49.110;9.140;2022-11-23T03:11:47;98084.56;;;20.87;56.06
75065;BME280;63646;49.110;9.140;2022-11-23T03:14:12;98080.09;;;20.88;56.15
75065;BME280;63646;49.110;9.140;2022-11-23T03:16:37;98079.25;;;20.87;55.61
75065;BME280;63646;49.110;9.140;2022-11-23T03:19:03;98077.59;;;20.86;55.82
75065;BME280;63646;49.110;9.140;2022-11-23T03:21:28;98079.25;;;20.87;55.78
75065;BME280;63646;49.110;9.140;2022-11-23T03:23:54;98083.72;;;20.87;55.61
75065;BME280;63646;49.110;9.140;2022-11-23T03:26:19;98083.72;;;20.87;55.94
75065;BME280;63646;49.110;9.140;2022-11-23T03:28:45;98087.19;;;20.87;56.08
75065;BME280;63646;49.110;9.140;2022-11-23T03:31:10;98088.22;;;20.86;55.62
75065;BME280;63646;49.110;9.140;2022-11-23T03:33:36;98087.19;;;20.87;55.97
75065;BME280;63646;49.110;9.140;2022-11-23T03:36:01;98092.69;;;20.86;56.00
75065;BME280;63646;49.110;9.140;2022-11-23T03:38:26;98080.44;;;20.85;55.77
75065;BME280;63646;49.110;9.140;2022-11-23T03:40:52;98088.56;;;20.83;55.88
75065;BME280;63646;49.110;9.140;2022-11-23T03:43:17;98088.56;;;20.83;55.82
75065;BME280;63646;49.110;9.140;2022-11-23T03:45:43;98086.72;;;20.84;56.33
75065;BME280;63646;49.110;9.140;2022-11-23T03:48:09;98075.47;;;20.82;55.92
75065;BME280;63646;49.110;9.140;2022-11-23T03:50:34;98075.47;;;20.82;55.84
75065;BME280;63646;49.110;9.140;2022-11-23T03:52:59;98073.81;;;20.81;56.02
75065;BME280;63646;49.110;9.140;2022-11-23T03:55:25;98070.97;;;20.82;55.87
75065;BME280;63646;49.110;9.140;2022-11-23T03:57:51;98073.63;;;20.82;55.83
75065;BME280;63646;49.110;9.140;2022-11-23T04:00:24;98076.28;;;20.82;55.92
75065;BME280;63646;49.110;9.140;2022-11-23T04:02:49;98070.31;;;20.80;55.66
75065;BME280;63646;49.110;9.140;2022-11-23T04:05:15;98065.84;;;20.81;55.70
75065;BME280;63646;49.110;9.140;2022-11-23T04:07:40;98061.53;;;20.80;56.20
75065;BME280;63646;49.110;9.140;2022-11-23T04:10:06;98060.69;;;20.79;55.88
75065;BME280;63646;49.110;9.140;2022-11-23T04:12:31;98058.22;;;20.78;56.16
75065;BME280;63646;49.110;9.140;2022-11-23T04:14:56;98062.53;;;20.79;55.98
75065;BME280;63646;49.110;9.140;2022-11-23T04:17:22;98063.53;;;20.78;55.98
75065;BME280;63646;49.110;9.140;2022-11-23T04:19:47;98059.06;;;20.78;55.76
75065;BME280;63646;49.110;9.140;2022-11-23T04:22:12;98055.41;;;20.79;55.79
75065;BME280;63646;49.110;9.140;2022-11-23T04:24:38;98051.72;;;20.80;55.82
75065;BME280;63646;49.110;9.140;2022-11-23T04:27:03;98057.03;;;20.80;55.89
75065;BME280;63646;49.110;9.140;2022-11-23T04:29:28;98056.41;;;20.78;56.06
75065;BME280;63646;49.110;9.140;2022-11-23T04:31:54;98058.03;;;20.79;55.76
75065;BME280;63646;49.110;9.140;2022-11-23T04:34:19;98061.53;;;20.80;55.76
75065;BME280;63646;49.110;9.140;2022-11-23T04:36:45;98058.88;;;20.80;55.84
75065;BME280;63646;49.110;9.140;2022-11-23T04:39:11;98052.94;;;20.78;55.82
75065;BME280;63646;49.110;9.140;2022-11-23T04:41:37;98056.41;;;20.78;55.94
75065;BME280;63646;49.110;9.140;2022-11-23T04:44:02;98059.06;;;20.78;56.29
75065;BME280;63646;49.110;9.140;2022-11-23T04:46:28;98056.56;;;20.77;56.09
75065;BME280;63646;49.110;9.140;2022-11-23T04:48:53;98053.75;;;20.78;56.08
75065;BME280;63646;49.110;9.140;2022-11-23T04:51:18;98053.06;;;20.76;56.08
75065;BME280;63646;49.110;9.140;2022-11-23T04:53:44;98055.09;;;20.74;56.35
75065;BME280;63646;49.110;9.140;2022-11-23T04:56:09;98046.94;;;20.75;56.05
75065;BME280;63646;49.110;9.140;2022-11-23T04:58:34;98058.38;;;20.76;56.47
75065;BME280;63646;49.110;9.140;2022-11-23T05:01:04;98052.59;;;20.72;56.09
75065;BME280;63646;49.110;9.140;2022-11-23T05:03:29;98056.94;;;20.73;55.75
75065;BME280;63646;49.110;9.140;2022-11-23T05:05:58;98053.44;;;20.73;56.11
75065;BME280;63646;49.110;9.140;2022-11-23T05:08:23;98055.25;;;20.72;56.18
75065;BME280;63646;49.110;9.140;2022-11-23T05:10:48;98049.94;;;20.72;55.90
75065;BME280;63646;49.110;9.140;2022-11-23T05:13:14;98056.09;;;20.73;55.95
75065;BME280;63646;49.110;9.140;2022-11-23T05:15:39;98049.94;;;20.72;55.94
75065;BME280;63646;49.110;9.140;2022-11-23T05:18:05;98061.41;;;20.73;56.14
75065;BME280;63646;49.110;9.140;2022-11-23T05:20:31;98061.41;;;20.73;55.85
75065;BME280;63646;49.110;9.140;2022-11-23T05:22:57;98053.44;;;20.73;56.26
75065;BME280;63646;49.110;9.140;2022-11-23T05:25:23;98061.41;;;20.73;56.11
75065;BME280;63646;49.110;9.140;2022-11-23T05:27:48;98059.75;;;20.72;55.88
75065;BME280;63646;49.110;9.140;2022-11-23T05:30:13;98059.75;;;20.72;56.34
75065;BME280;63646;49.110;9.140;2022-11-23T05:32:39;98056.25;;;20.71;56.27
75065;BME280;63646;49.110;9.140;2022-11-23T05:35:05;98060.56;;;20.72;55.90
75065;BME280;63646;49.110;9.140;2022-11-23T05:37:30;98058.91;;;20.71;55.98
75065;BME280;63646;49.110;9.140;2022-11-23T05:39:56;98055.44;;;20.71;56.04
75065;BME280;63646;49.110;9.140;2022-11-23T05:42:21;98053.59;;;20.71;56.30
75065;BME280;63646;49.110;9.140;2022-11-23T05:44:46;98054.44;;;20.72;56.21
75065;BME280;63646;49.110;9.140;2022-11-23T05:47:12;98056.09;;;20.73;56.05
75065;BME280;63646;49.110;9.140;2022-11-23T05:49:37;98059.59;;;20.73;56.19
75065;BME280;63646;49.110;9.140;2022-11-23T05:52:02;98050.94;;;20.71;55.77
75065;BME280;63646;49.110;9.140;2022-11-23T05:54:28;98057.09;;;20.72;56.18
75065;BME280;63646;49.110;9.140;2022-11-23T05:56:53;98060.56;;;20.72;55.91
75065;BME280;63646;49.110;9.140;2022-11-23T05:59:18;98052.44;;;20.74;56.72
75065;BME280;63646;49.110;9.140;2022-11-23T06:01:44;98055.09;;;20.74;56.82
75065;BME280;63646;49.110;9.140;2022-11-23T06:04:09;98050.63;;;20.74;56.96
75065;BME280;63646;49.110;9.140;2022-11-23T06:06:34;98053.91;;;20.77;56.64
75065;BME280;63646;49.110;9.140;2022-11-23T06:09:00;98052.09;;;20.77;56.72
75065;BME280;63646;49.110;9.140;2022-11-23T06:11:25;98055.56;;;20.78;56.69
75065;BME280;63646;49.110;9.140;2022-11-23T06:13:51;98053.75;;;20.78;56.94
75065;BME280;63646;49.110;9.140;2022-11-23T06:16:16;98050.91;;;20.80;57.04
75065;BME280;63646;49.110;9.140;2022-11-23T06:18:41;98052.59;;;20.81;57.41
75065;BME280;63646;49.110;9.140;2022-11-23T06:21:07;98047.91;;;20.83;57.24
75065;BME280;63646;49.110;9.140;2022-11-23T06:23:33;98058.38;;;20.84;56.82
75065;BME280;63646;49.110;9.140;2022-11-23T06:26:01;98051.88;;;20.87;56.86
75065;BME280;63646;49.110;9.140;2022-11-23T06:28:27;98048.38;;;20.86;57.08
75065;BME280;63646;49.110;9.140;2022-11-23T06:30:54;98064.81;;;20.90;57.39
75065;BME280;63646;49.110;9.140;2022-11-23T06:33:20;98053.53;;;20.88;57.33
75065;BME280;63646;49.110;9.140;2022-11-23T06:35:57;98067.63;;;20.88;57.20
75065;BME280;63646;49.110;9.140;2022-11-23T06:38:23;98062.34;;;20.88;57.25
75065;BME280;63646;49.110;9.140;2022-11-23T06:40:48;98066.81;;;20.88;57.50
75065;BME280;63646;49.110;9.140;2022-11-23T06:43:14;98063.31;;;20.87;57.54
75065;BME280;63646;49.110;9.140;2022-11-23T06:45:39;98055.00;;;20.90;57.55
75065;BME280;63646;49.110;9.140;2022-11-23T06:48:05;98056.84;;;20.90;57.21
75065;BME280;63646;49.110;9.140;2022-11-23T06:50:30;98065.47;;;20.92;57.45
75065;BME280;63646;49.110;9.140;2022-11-23T06:52:56;98065.63;;;20.90;57.30
75065;BME280;63646;49.110;9.140;2022-11-23T06:55:22;98066.28;;;20.92;56.86
75065;BME280;63646;49.110;9.140;2022-11-23T06:57:48;98073.44;;;20.92;56.75
75065;BME280;63646;49.110;9.140;2022-11-23T07:00:13;98076.09;;;20.92;57.25
75065;BME280;63646;49.110;9.140;2022-11-23T07:02:39;98080.88;;;20.96;56.69
75065;BME280;63646;49.110;9.140;2022-11-23T07:05:05;98072.22;;;20.94;56.98
75065;BME280;63646;49.110;9.140;2022-11-23T07:07:31;98060.63;;;20.95;57.04
75065;BME280;63646;49.110;9.140;2022-11-23T07:09:56;98054.47;;;20.95;57.12
75065;BME280;63646;49.110;9.140;2022-11-23T07:12:21;98067.94;;;20.93;57.25
75065;BME280;63646;49.110;9.140;2022-11-23T07:14:47;98070.25;;;20.96;57.48
75065;BME280;63646;49.110;9.140;2022-11-23T07:17:12;98076.56;;;20.95;57.64
75065;BME280;63646;49.110;9.140;2022-11-23T07:19:37;98078.03;;;20.98;57.76
75065;BME280;63646;49.110;9.140;2022-11-23T07:22:03;98084.34;;;20.97;57.39
75065;BME280;63646;49.110;9.140;2022-11-23T07:24:28;98084.00;;;21.00;57.10
75065;BME280;63646;49.110;9.140;2022-11-23T07:26:54;98079.16;;;21.04;57.04
75065;BME280;63646;49.110;9.140;2022-11-23T07:29:19;98078.16;;;21.05;56.80
75065;BME280;63646;49.110;9.140;2022-11-23T07:31:44;98081.97;;;21.02;56.96
75065;BME280;63646;49.110;9.140;2022-11-23T07:34:10;98084.63;;;21.02;56.62
75065;BME280;63646;49.110;9.140;2022-11-23T07:36:35;98085.66;;;21.01;56.66
75065;BME280;63646;49.110;9.140;2022-11-23T07:39:01;98088.50;;;20.99;57.04
75065;BME280;63646;49.110;9.140;2022-11-23T07:41:26;98088.84;;;20.96;56.80
75065;BME280;63646;49.110;9.140;2022-11-23T07:43:52;98090.47;;;20.97;56.95
75065;BME280;63646;49.110;9.140;2022-11-23T07:46:17;98083.34;;;20.98;56.54
75065;BME280;63646;49.110;9.140;2022-11-23T07:48:42;98092.50;;;20.95;56.36
75065;BME280;63646;49.110;9.140;2022-11-23T07:51:08;98093.31;;;20.96;56.59
75065;BME280;63646;49.110;9.140;2022-11-23T07:53:33;98092.50;;;20.95;56.75
75065;BME280;63646;49.110;9.140;2022-11-23T07:56:00;98090.81;;;20.94;56.89
75065;BME280;63646;49.110;9.140;2022-11-23T07:58:25;98097.81;;;20.95;56.81
75065;BME280;63646;49.110;9.140;2022-11-23T08:00:51;98103.94;;;20.96;56.76
75065;BME280;63646;49.110;9.140;2022-11-23T08:03:16;98091.66;;;20.95;56.64
75065;BME280;63646;49.110;9.140;2022-11-23T08:05:42;98098.16;;;20.92;56.21
75065;BME280;63646;49.110;9.140;2022-11-23T08:08:07;98099.31;;;20.90;56.13
75065;BME280;63646;49.110;9.140;2022-11-23T08:10:33;98097.34;;;20.84;54.29
75065;BME280;63646;49.110;9.140;2022-11-23T08:12:59;98109.97;;;20.82;54.51
75065;BME280;63646;49.110;9.140;2022-11-23T08:15:26;98107.47;;;20.80;55.64
75065;BME280;63646;49.110;9.140;2022-11-23T08:18:01;98110.81;;;20.82;54.69
75065;BME280;63646;49.110;9.140;2022-11-23T08:20:28;98107.13;;;20.83;54.95
75065;BME280;63646;49.110;9.140;2022-11-23T08:22:54;98109.78;;;20.83;54.78
75065;BME280;63646;49.110;9.140;2022-11-23T08:25:27;98107.97;;;20.84;54.27
75065;BME280;63646;49.110;9.140;2022-11-23T08:28:01;98109.78;;;20.83;54.54
75065;BME280;63646;49.110;9.140;2022-11-23T08:30:28;98109.63;;;20.85;54.20
75065;BME280;63646;49.110;9.140;2022-11-23T08:32:53;98102.50;;;20.85;54.41
75065;BME280;63646;49.110;9.140;2022-11-23T08:35:19;98109.63;;;20.85;54.25
75065;BME280;63646;49.110;9.140;2022-11-23T08:37:45;98105.97;;;20.86;54.42
75065;BME280;63646;49.110;9.140;2022-11-23T08:40:11;98106.97;;;20.85;54.39
75065;BME280;63646;49.110;9.140;2022-11-23T08:42:36;98102.50;;;20.85;54.70
75065;BME280;63646;49.110;9.140;2022-11-23T08:45:02;98103.50;;;20.84;54.37
75065;BME280;63646;49.110;9.140;2022-11-23T08:47:30;98109.44;;;20.86;54.50
75065;BME280;63646;49.110;9.140;2022-11-23T08:49:55;98103.31;;;20.86;54.75
75065;BME280;63646;49.110;9.140;2022-11-23T08:52:22;98105.78;;;20.87;54.48
75065;BME280;63646;49.110;9.140;2022-11-23T08:54:48;98111.09;;;20.87;54.45
75065;BME280;63646;49.110;9.140;2022-11-23T08:57:13;98111.09;;;20.87;54.92
75065;BME280;63646;49.110;9.140;2022-11-23T08:59:38;98114.59;;;20.88;54.68
75065;BME280;63646;49.110;9.140;2022-11-23T09:02:04;98111.09;;;20.87;54.69
75065;BME280;63646;49.110;9.140;2022-11-23T09:04:29;98112.94;;;20.87;54.98
75065;BME280;63646;49.110;9.140;2022-11-23T09:06:55;98110.28;;;20.87;54.98
75065;BME280;63646;49.110;9.140;2022-11-23T09:09:21;98115.59;;;20.87;54.95
75065;BME280;63646;49.110;9.140;2022-11-23T09:11:46;98111.09;;;20.87;55.08
75065;BME280;63646;49.110;9.140;2022-11-23T09:14:12;98111.94;;;20.88;55.01
75065;BME280;63646;49.110;9.140;2022-11-23T09:16:38;98107.81;;;20.85;55.03
75065;BME280;63646;49.110;9.140;2022-11-23T09:19:03;98112.94;;;20.87;55.35
75065;BME280;63646;49.110;9.140;2022-11-23T09:21:30;98116.25;;;20.89;55.32
75065;BME280;63646;49.110;9.140;2022-11-23T09:23:58;98117.09;;;20.89;55.53
75065;BME280;63646;49.110;9.140;2022-11-23T09:26:24;98111.75;;;20.89;55.25
75065;BME280;63646;49.110;9.140;2022-11-23T09:28:49;98119.53;;;20.91;55.18
75065;BME280;63646;49.110;9.140;2022-11-23T09:31:15;98117.75;;;20.91;55.07
75065;BME280;63646;49.110;9.140;2022-11-23T09:33:41;98120.41;;;20.91;55.31
75065;BME280;63646;49.110;9.140;2022-11-23T09:36:06;98118.56;;;20.92;55.56
75065;BME280;63646;49.110;9.140;2022-11-23T09:38:32;98107.13;;;20.91;55.76
75065;BME280;63646;49.110;9.140;2022-11-23T09:44:04;98115.72;;;20.93;55.08
75065;BME280;63646;49.110;9.140;2022-11-23T09:46:47;98121.03;;;20.93;55.16
75065;BME280;63646;49.110;9.140;2022-11-23T09:49:20;98112.06;;;20.94;55.21
75065;BME280;63646;49.110;9.140;2022-11-23T09:51:47;98114.56;;;20.96;55.21
75065;BME280;63646;49.110;9.140;2022-11-23T09:54:31;98111.25;;;20.94;55.27
75065;BME280;63646;49.110;9.140;2022-11-23T09:56:57;98125.00;;;20.97;55.04
75065;BME280;63646;49.110;9.140;2022-11-23T10:01:56;98106.41;;;20.97;55.31
75065;BME280;63646;49.110;9.140;2022-11-23T10:04:21;98112.53;;;20.98;55.24
75065;BME280;63646;49.110;9.140;2022-11-23T10:06:55;98104.59;;;20.98;55.40
75065;BME280;63646;49.110;9.140;2022-11-23T10:09:37;98096.47;;;20.99;55.19
75065;BME280;63646;49.110;9.140;2022-11-23T10:17:30;98090.13;;;21.01;55.65
75065;BME280;63646;49.110;9.140;2022-11-23T10:22:58;98090.13;;;21.01;55.40
75065;BME280;63646;49.110;9.140;2022-11-23T10:25:24;98083.81;;;21.02;55.50
75065;BME280;63646;49.110;9.140;2022-11-23T10:27:55;98088.16;;;21.03;55.58
75065;BME280;63646;49.110;9.140;2022-11-23T10:30:21;98083.81;;;21.02;55.70
75065;BME280;63646;49.110;9.140;2022-11-23T10:32:54;98077.53;;;21.03;55.69
75065;BME280;63646;49.110;9.140;2022-11-23T10:35:32;98077.53;;;21.03;55.46
75065;BME280;63646;49.110;9.140;2022-11-23T10:38:10;98073.88;;;21.04;55.23
75065;BME280;63646;49.110;9.140;2022-11-23T10:40:38;98072.22;;;21.03;55.55
75065;BME280;63646;49.110;9.140;2022-11-23T10:43:25;98079.16;;;21.04;55.27
75065;BME280;63646;49.110;9.140;2022-11-23T10:48:47;98083.66;;;21.03;55.65
75065;BME280;63646;49.110;9.140;2022-11-23T10:51:32;98073.03;;;21.03;55.42
75065;BME280;63646;49.110;9.140;2022-11-23T10:54:01;98069.56;;;21.03;55.60
75065;BME280;63646;49.110;9.140;2022-11-23T10:56:27;98075.50;;;21.05;55.69
75065;BME280;63646;49.110;9.140;2022-11-23T10:58:53;98074.88;;;21.03;55.70
75065;BME280;63646;49.110;9.140;2022-11-23T11:01:24;98072.84;;;21.05;55.29
75065;BME280;63646;49.110;9.140;2022-11-23T11:03:51;98075.50;;;21.05;55.35
75065;BME280;63646;49.110;9.140;2022-11-23T11:06:28;98068.53;;;21.04;55.35
75065;BME280;63646;49.110;9.140;2022-11-23T11:08:59;98075.34;;;21.06;55.49
75065;BME280;63646;49.110;9.140;2022-11-23T11:11:31;98065.53;;;21.07;55.26
75065;BME280;63646;49.110;9.140;2022-11-23T11:14:20;98071.69;;;21.07;55.69
75065;BME280;63646;49.110;9.140;2022-11-23T11:16:54;98058.41;;;21.07;55.57
75065;BME280;63646;49.110;9.140;2022-11-23T11:21:54;98067.00;;;21.09;55.51
75065;BME280;63646;49.110;9.140;2022-11-23T11:24:27;98061.53;;;21.11;55.57
75065;BME280;63646;49.110;9.140;2022-11-23T11:27:00;98046.22;;;21.13;55.26
75065;BME280;63646;49.110;9.140;2022-11-23T11:37:41;98040.09;;;21.12;54.27
75065;BME280;63646;49.110;9.140;2022-11-23T11:42:38;98028.00;;;21.10;54.21
75065;BME280;63646;49.110;9.140;2022-11-23T11:45:08;98031.97;;;21.14;54.05
75065;BME280;63646;49.110;9.140;2022-11-23T11:47:44;98028.66;;;21.12;54.15
75065;BME280;63646;49.110;9.140;2022-11-23T11:50:32;98031.97;;;21.14;54.25
75065;BME280;63646;49.110;9.140;2022-11-23T11:53:04;98018.50;;;21.15;56.00
75065;BME280;63646;49.110;9.140;2022-11-23T11:58:09;98017.28;;;21.26;55.92
75065;BME280;63646;49.110;9.140;2022-11-23T12:00:36;98009.09;;;21.28;56.58
75065;BME280;63646;49.110;9.140;2022-11-23T12:05:39;98000.28;;;21.35;56.02
75065;BME280;63646;49.110;9.140;2022-11-23T12:10:40;97998.56;;;21.42;55.76
75065;BME280;63646;49.110;9.140;2022-11-23T12:13:12;97997.56;;;21.43;56.17
75065;BME280;63646;49.110;9.140;2022-11-23T12:15:44;97993.72;;;21.46;55.97
75065;BME280;63646;49.110;9.140;2022-11-23T12:24:00;97985.28;;;20.96;41.38
75065;BME280;63646;49.110;9.140;2022-11-23T12:26:32;97989.03;;;20.79;45.96
75065;BME280;63646;49.110;9.140;2022-11-23T12:35:04;97977.59;;;21.02;48.72
75065;BME280;63646;49.110;9.140;2022-11-23T12:40:09;97972.88;;;21.12;49.00
75065;BME280;63646;49.110;9.140;2022-11-23T12:42:43;97976.19;;;21.14;49.61
75065;BME280;63646;49.110;9.140;2022-11-23T12:51:17;97973.47;;;21.22;50.20
75065;BME280;63646;49.110;9.140;2022-11-23T12:59:00;97965.16;;;21.25;49.46
75065;BME280;63646;49.110;9.140;2022-11-23T13:01:30;97966.78;;;21.26;50.02
75065;BME280;63646;49.110;9.140;2022-11-23T13:17:59;97960.59;;;20.17;31.81
75065;BME280;63646;49.110;9.140;2022-11-23T13:23:07;97951.91;;;20.00;35.71
75065;BME280;63646;49.110;9.140;2022-11-23T13:25:32;97951.00;;;20.16;36.65
75065;BME280;63646;49.110;9.140;2022-11-23T13:28:00;97951.09;;;20.31;40.18
75065;BME280;63646;49.110;9.140;2022-11-23T13:40:42;97939.94;;;20.75;42.23
75065;BME280;63646;49.110;9.140;2022-11-23T13:43:15;97933.94;;;20.81;42.09
75065;BME280;63646;49.110;9.140;2022-11-23T13:45:42;97922.78;;;20.86;42.49
75065;BME280;63646;49.110;9.140;2022-11-23T13:50:38;97924.56;;;20.93;43.40
75065;BME280;63646;49.110;9.140;2022-11-23T13:53:27;97910.94;;;20.96;43.63
75065;BME280;63646;49.110;9.140;2022-11-23T13:55:57;97914.22;;;20.98;44.18
75065;BME280;63646;49.110;9.140;2022-11-23T14:00:57;97910.84;;;21.05;44.16
75065;BME280;63646;49.110;9.140;2022-11-23T14:14:35;97882.56;;;21.12;45.68
75065;BME280;63646;49.110;9.140;2022-11-23T14:20:07;97884.88;;;21.15;45.76
75065;BME280;63646;49.110;9.140;2022-11-23T14:36:52;97886.31;;;21.03;46.96
75065;BME280;63646;49.110;9.140;2022-11-23T14:42:10;97882.19;;;21.00;46.33
75065;BME280;63646;49.110;9.140;2022-11-23T14:44:39;97874.56;;;20.97;46.52
75065;BME280;63646;49.110;9.140;2022-11-23T14:47:06;97870.75;;;20.99;47.16
75065;BME280;63646;49.110;9.140;2022-11-23T14:49:32;97869.72;;;21.01;47.64
75065;BME280;63646;49.110;9.140;2022-11-23T14:51:58;97860.13;;;20.99;47.95
75065;BME280;63646;49.110;9.140;2022-11-23T14:54:24;97859.94;;;21.01;47.69
75065;BME280;63646;49.110;9.140;2022-11-23T14:56:52;97862.59;;;21.01;48.26
75065;BME280;63646;49.110;9.140;2022-11-23T14:59:27;97858.91;;;21.02;48.28
75065;BME280;63646;49.110;9.140;2022-11-23T15:02:13;97864.69;;;21.06;48.52
75065;BME280;63646;49.110;9.140;2022-11-23T15:04:53;97860.22;;;21.06;48.19
75065;BME280;63646;49.110;9.140;2022-11-23T15:07:24;97861.06;;;21.07;48.34
75065;BME280;63646;49.110;9.140;2022-11-23T15:10:16;97866.06;;;21.02;47.37